Accueil
METAR-TAF:

METAR-TAF

Aéroports :

Base aérienne 279 Châteaudun

Châteaudun, France

latitude: 48-03N, longitude: 001-23E, altitude: 134 m

Observation

Le bulletin a été fait il y a 27 minutes, à 08:00 UTC
Vent 4 kt de sud/sud-est
Température 17°C
Humidité 82%
Pression 1009 hPa
Visibilité 10 km ou plus
pas de nuages en-dessous de 1500 mètres et pas de cumulonimbus.

METAR: LFOC 150800Z AUTO 16004KT CAVOK 17/14 Q1009 NOSIG

Heure: 10:27 (08:27 UTC)

Prévision

Le bulletin a été fait il y a 2 heures et 27 minutes, à 06:00 UTC
Prévision valable du 15 à 06 UTC au 16 à 03 UTC
Vent 8 kt de sud-est
Visibilité 10 km ou plus
Nuages fragmentés à une hauteur de 1300 ft
Evoluant progressivement
du 15 à 07 UTC au 15 à 09 UTC
Nuages épars à une hauteur de 4000 ft

TAF: LFOC 150600Z 1506/1603 14008KT 9999 BKN013 BECMG 1507/1509 SCT040

Observations et prévisions météorologiques de plus de 4000 aéroports (messages METAR et TAF).

Les stations disponibles sont représentées par des disques jaunes et rouges sur la carte.

Passer la souris dessus pour voir le nom de la station.

Cliquer dessus pour voir les observations et prévisions météorologiques.

Pour changer de carte: cliquez sur les boutons verts avec une croix noire pour zoomer, sur le bouton vert avec un tiret pour effectuer un zoom arrière, ou sur les flèches vertes pour les cartes adjacentes.


METAR-TAF: